Terminal Aerodrome Forecast
Issued by NWS La Crosse, WI

Home | Current Version | Previous Version | Text Only | Print | Product List | Glossary On
Versions: 1 2 3 4 5 6 7 8 9 10 11 12 13 14 15 16 17 18 19 20
000
FTUS43 KARX 161125
TAFLSE
TAF
KLSE 161125Z 1612/1712 13008KT P6SM BKN070 WS020/18045KT
     FM161500 14015G25KT P6SM BKN100
     FM162300 14012KT P6SM -RA OVC050
     FM170500 14014KT 5SM -RA OVC025
     FM170900 30011KT P6SM OVC015=

USA.gov is the U.S. government's official web portal to all federal, state and local government web resources and services.